Time;durP1;ratioP1;P1;durP2;ratioP2;P2;SDS_P1;SDS_P2;PMS_P1;PMS_P2;Temp;Humidity;BMP_temperature;BMP_pressure;BME280_temperature;BME280_humidity;BME280_pressure;Samples;Min_cycle;Max_cycle;Signal;HPM_P1;HPM_P2
2022/03/06 00:02:12;;;;;;;48.50;17.85;;;1.60;99.90;;;;;;5027629;28;20042;-82
2022/03/06 00:04:38;;;;;;;41.78;17.25;;;1.60;99.90;;;;;;5027972;28;20030;-80
2022/03/06 00:07:04;;;;;;;45.45;18.13;;;1.60;99.90;;;;;;5027249;28;20065;-81
2022/03/06 00:09:30;;;;;;;45.25;18.05;;;1.50;99.90;;;;;;5027321;28;20041;-79
2022/03/06 00:11:56;;;;;;;43.03;20.15;;;1.50;99.90;;;;;;5026057;28;20018;-80
2022/03/06 00:14:22;;;;;;;43.92;18.83;;;1.50;99.90;;;;;;5028617;28;20025;-81
2022/03/06 00:16:48;;;;;;;43.88;19.15;;;1.50;99.90;;;;;;5011374;28;20064;-81
2022/03/06 00:19:14;;;;;;;46.70;18.65;;;1.50;99.90;;;;;;5028352;28;20025;-80
2022/03/06 00:21:40;;;;;;;51.42;19.92;;;1.40;99.90;;;;;;5018062;28;20041;-78
2022/03/06 00:24:06;;;;;;;41.05;18.83;;;1.40;99.90;;;;;;5029151;28;20037;-80
2022/03/06 00:26:33;;;;;;;44.88;19.48;;;1.50;99.90;;;;;;5029853;28;20018;-81
2022/03/06 00:28:59;;;;;;;47.72;19.98;;;1.40;99.90;;;;;;5030422;28;20041;-79
2022/03/06 00:31:25;;;;;;;41.70;19.05;;;1.40;99.90;;;;;;5029024;28;20041;-79
2022/03/06 00:33:53;;;;;;;43.55;19.55;;;1.40;99.90;;;;;;5029336;28;20049;-79
2022/03/06 00:36:19;;;;;;;47.38;19.30;;;1.30;99.90;;;;;;5033290;28;20030;-78
2022/03/06 00:38:45;;;;;;;43.42;18.65;;;1.30;99.90;;;;;;5029283;28;20034;-80
2022/03/06 00:41:13;;;;;;;45.88;21.00;;;1.30;99.90;;;;;;5013853;28;20145;-80
2022/03/06 00:43:39;;;;;;;47.72;20.35;;;1.30;99.90;;;;;;5022972;28;20045;-81
2022/03/06 00:46:06;;;;;;;48.72;20.33;;;1.30;99.90;;;;;;5019878;28;20029;-80
2022/03/06 00:48:33;;;;;;;48.20;20.48;;;1.20;99.90;;;;;;5024038;28;20058;-80
2022/03/06 00:50:59;;;;;;;47.15;19.85;;;1.20;99.90;;;;;;5006611;28;20417;-81
2022/03/06 00:53:24;;;;;;;43.67;19.73;;;1.20;99.90;;;;;;5007123;28;20043;-80
2022/03/06 00:55:51;;;;;;;45.45;19.42;;;1.20;99.90;;;;;;5025526;28;20026;-81
2022/03/06 00:58:17;;;;;;;47.65;20.80;;;1.20;99.90;;;;;;5028139;28;20034;-80
2022/03/06 01:00:46;;;;;;;46.85;20.60;;;1.20;99.90;;;;;;5027162;28;20045;-80
2022/03/06 01:03:15;;;;;;;51.47;20.20;;;1.20;99.90;;;;;;5026826;28;20052;-80
2022/03/06 01:05:41;;;;;;;49.72;19.83;;;1.30;99.90;;;;;;5031541;28;20025;-79
2022/03/06 01:08:08;;;;;;;52.20;21.02;;;1.20;99.90;;;;;;5030569;28;20030;-79
2022/03/06 01:10:36;;;;;;;46.65;19.55;;;1.20;99.90;;;;;;5026853;28;20092;-78
2022/03/06 01:13:03;;;;;;;50.22;21.05;;;1.10;99.90;;;;;;5007687;28;20061;-79
2022/03/06 01:15:29;;;;;;;53.58;21.45;;;1.20;99.90;;;;;;5029144;28;20049;-79
2022/03/06 01:17:55;;;;;;;49.70;21.05;;;1.20;99.90;;;;;;5029689;28;20038;-79
2022/03/06 01:20:23;;;;;;;52.85;22.08;;;1.20;99.90;;;;;;5025412;28;20026;-80
2022/03/06 01:22:50;;;;;;;50.97;19.50;;;1.20;99.90;;;;;;5025102;28;20037;-79
2022/03/06 01:25:16;;;;;;;49.42;20.92;;;1.20;99.90;;;;;;5009462;28;20030;-80
2022/03/06 01:27:42;;;;;;;46.35;19.88;;;1.20;99.90;;;;;;5026731;28;20077;-80
2022/03/06 01:30:10;;;;;;;49.55;21.33;;;1.20;99.90;;;;;;5022879;28;20022;-79
2022/03/06 01:32:37;;;;;;;46.50;20.52;;;1.10;99.90;;;;;;5023260;28;20034;-78
2022/03/06 01:35:04;;;;;;;50.50;21.73;;;1.20;99.90;;;;;;5027598;28;20033;-79
2022/03/06 01:37:29;;;;;;;50.85;21.95;;;1.20;99.90;;;;;;5027543;28;20033;-79
2022/03/06 01:39:55;;;;;;;44.40;19.75;;;1.20;99.90;;;;;;5018726;28;20033;-81
2022/03/06 01:42:21;;;;;;;52.67;20.92;;;1.20;99.90;;;;;;5018473;28;20120;-79
2022/03/06 01:44:52;;;;;;;53.25;20.55;;;1.20;99.90;;;;;;5020829;28;20042;-79
2022/03/06 01:47:39;;;;;;;46.53;19.35;;;1.20;99.90;;;;;;4985788;28;20064;-80
2022/03/06 01:50:21;;;;;;;49.28;20.55;;;1.20;99.90;;;;;;5030954;28;20030;-79
2022/03/06 01:52:48;;;;;;;44.03;18.60;;;1.10;99.90;;;;;;5028951;28;20383;-80
2022/03/06 01:55:16;;;;;;;50.90;20.08;;;1.10;99.90;;;;;;5004591;28;20040;-78
2022/03/06 01:57:44;;;;;;;42.13;19.98;;;1.10;99.90;;;;;;5015236;28;20034;-79
2022/03/06 02:00:14;;;;;;;46.95;20.05;;;1.10;99.90;;;;;;5021065;28;20076;-80
2022/03/06 02:02:41;;;;;;;48.00;20.80;;;1.20;99.90;;;;;;5017927;28;20483;-81
2022/03/06 02:05:09;;;;;;;47.67;19.40;;;1.20;99.90;;;;;;5022645;28;20101;-79
2022/03/06 02:07:35;;;;;;;45.75;20.00;;;1.20;99.90;;;;;;5024901;28;20032;-81
2022/03/06 02:10:02;;;;;;;41.35;18.75;;;1.20;99.90;;;;;;5022014;28;20030;-79
2022/03/06 02:12:28;;;;;;;55.60;21.67;;;1.10;99.90;;;;;;5022986;28;20038;-80
2022/03/06 02:14:56;;;;;;;42.95;19.67;;;1.20;99.90;;;;;;5031253;28;20026;-79
2022/03/06 02:17:23;;;;;;;40.67;19.30;;;1.20;99.90;;;;;;5030596;28;20034;-79
2022/03/06 02:19:52;;;;;;;45.47;19.50;;;1.20;99.90;;;;;;5030348;28;20026;-80
2022/03/06 02:22:19;;;;;;;50.22;19.90;;;1.20;99.90;;;;;;5031134;28;20064;-79
2022/03/06 02:24:45;;;;;;;48.97;20.50;;;1.20;99.90;;;;;;5032784;28;20489;-80
2022/03/06 02:27:11;;;;;;;53.85;21.30;;;1.20;99.90;;;;;;5033371;28;20047;-80
2022/03/06 02:29:41;;;;;;;48.55;20.08;;;1.20;99.90;;;;;;5033150;28;20517;-79
2022/03/06 02:32:09;;;;;;;49.15;20.02;;;1.20;99.90;;;;;;4989730;28;20057;-79
2022/03/06 02:34:39;;;;;;;49.30;20.42;;;1.20;99.90;;;;;;5031519;28;20025;-79
2022/03/06 02:37:05;;;;;;;51.88;21.90;;;1.20;99.90;;;;;;5034565;28;20041;-80
2022/03/06 02:39:32;;;;;;;44.78;19.73;;;1.20;99.90;;;;;;5033741;28;20034;-80
2022/03/06 02:41:58;;;;;;;57.28;21.63;;;1.20;99.90;;;;;;5028193;28;20034;-80
2022/03/06 02:44:25;;;;;;;46.38;20.35;;;1.30;99.90;;;;;;5028348;28;20053;-79
2022/03/06 02:46:51;;;;;;;48.63;21.20;;;1.20;99.90;;;;;;5013085;28;20037;-79
2022/03/06 02:49:19;;;;;;;45.42;21.15;;;1.20;99.90;;;;;;5012809;28;20026;-80
2022/03/06 02:51:45;;;;;;;47.58;20.27;;;1.20;99.90;;;;;;5029528;28;20045;-78
2022/03/06 02:54:12;;;;;;;50.42;21.23;;;1.20;99.90;;;;;;5014150;28;20022;-78
2022/03/06 02:56:38;;;;;;;48.55;20.02;;;1.20;99.90;;;;;;5012553;28;20026;-79
2022/03/06 02:59:04;;;;;;;53.05;22.33;;;1.20;99.90;;;;;;5025916;28;20478;-79
2022/03/06 03:01:30;;;;;;;53.20;20.35;;;1.20;99.90;;;;;;5024762;28;20053;-79
2022/03/06 03:03:56;;;;;;;49.08;20.95;;;1.10;99.90;;;;;;5024500;28;20022;-80
2022/03/06 03:06:23;;;;;;;45.75;20.02;;;1.20;99.90;;;;;;5005383;28;20034;-81
2022/03/06 03:08:48;;;;;;;45.60;19.38;;;1.20;99.90;;;;;;5023863;28;20025;-80
2022/03/06 03:11:15;;;;;;;51.95;20.23;;;1.10;99.90;;;;;;5022503;28;20026;-79
2022/03/06 03:13:41;;;;;;;44.13;19.45;;;1.10;99.90;;;;;;5024021;28;20026;-79
2022/03/06 03:16:07;;;;;;;42.05;18.67;;;1.10;99.90;;;;;;5023062;28;20041;-80
2022/03/06 03:18:33;;;;;;;44.72;19.27;;;1.10;99.90;;;;;;5024740;28;20029;-78
2022/03/06 03:20:59;;;;;;;44.80;18.98;;;1.10;99.90;;;;;;5030473;28;20061;-79
2022/03/06 03:23:25;;;;;;;44.70;18.92;;;1.10;99.90;;;;;;5024087;28;20033;-80
2022/03/06 03:25:50;;;;;;;42.35;18.38;;;1.10;99.90;;;;;;5023086;28;20053;-79
2022/03/06 03:28:16;;;;;;;45.95;19.00;;;1.10;99.90;;;;;;5025600;28;20026;-80
2022/03/06 03:30:42;;;;;;;42.22;18.25;;;1.20;99.90;;;;;;5028568;28;20054;-78
2022/03/06 03:33:08;;;;;;;40.22;16.88;;;1.10;99.90;;;;;;5027244;28;20112;-80
2022/03/06 03:35:34;;;;;;;44.67;17.85;;;1.10;99.90;;;;;;5025375;28;20441;-80
2022/03/06 03:37:59;;;;;;;42.78;18.33;;;1.10;99.90;;;;;;5024538;28;20026;-80
2022/03/06 03:40:25;;;;;;;42.15;19.25;;;1.10;99.90;;;;;;5023898;28;20116;-78
2022/03/06 03:42:51;;;;;;;40.28;18.23;;;1.10;99.90;;;;;;5026575;28;20094;-79
2022/03/06 03:45:17;;;;;;;44.75;16.73;;;1.10;99.90;;;;;;5025527;28;20041;-79
2022/03/06 03:47:43;;;;;;;43.30;17.92;;;1.10;99.90;;;;;;5025285;28;20085;-81
2022/03/06 03:50:09;;;;;;;44.35;18.92;;;1.10;99.90;;;;;;5025729;28;20034;-79
2022/03/06 03:52:35;;;;;;;43.80;18.42;;;1.10;99.90;;;;;;5006593;28;20382;-80
2022/03/06 03:55:01;;;;;;;45.60;18.35;;;1.10;99.90;;;;;;5025729;28;20028;-81
2022/03/06 03:57:26;;;;;;;40.53;18.70;;;1.10;99.90;;;;;;5027733;28;20022;-79
2022/03/06 03:59:52;;;;;;;51.90;18.17;;;1.10;99.90;;;;;;5054216;23;20044;-85
2022/03/06 04:02:18;;;;;;;37.58;17.75;;;1.10;99.90;;;;;;5059415;28;20021;-86
2022/03/06 04:04:44;;;;;;;41.80;17.98;;;1.10;99.90;;;;;;5042002;28;20034;-85
2022/03/06 04:07:10;;;;;;;44.92;18.65;;;1.10;99.90;;;;;;5060008;28;20045;-86
2022/03/06 04:09:36;;;;;;;48.90;19.33;;;1.10;99.90;;;;;;5043292;28;20037;-85
2022/03/06 04:12:02;;;;;;;44.85;19.75;;;1.10;99.90;;;;;;5058782;28;20132;-86
2022/03/06 04:14:27;;;;;;;44.42;18.38;;;1.10;99.90;;;;;;5055962;28;20025;-86
2022/03/06 04:16:53;;;;;;;42.30;18.38;;;1.10;99.90;;;;;;5057366;28;20014;-86
2022/03/06 04:19:19;;;;;;;43.10;19.02;;;1.10;99.90;;;;;;5042707;28;20021;-84
2022/03/06 04:21:45;;;;;;;46.47;19.77;;;1.10;99.90;;;;;;5059542;28;20090;-85
2022/03/06 04:24:11;;;;;;;52.67;19.35;;;1.10;99.90;;;;;;5059749;28;20025;-83
2022/03/06 04:26:37;;;;;;;40.05;18.52;;;1.10;99.90;;;;;;5059728;28;20021;-84
2022/03/06 04:29:04;;;;;;;43.70;18.98;;;1.10;99.90;;;;;;5042718;28;20037;-84
2022/03/06 04:31:30;;;;;;;48.40;19.40;;;1.10;99.90;;;;;;5026002;28;20021;-85
2022/03/06 04:33:56;;;;;;;48.30;19.50;;;1.10;99.90;;;;;;5042779;28;20052;-83
2022/03/06 04:36:22;;;;;;;46.55;19.92;;;1.10;99.90;;;;;;5042767;28;20049;-84
2022/03/06 04:38:49;;;;;;;45.97;19.20;;;1.00;99.90;;;;;;5025968;28;20025;-83
2022/03/06 04:41:16;;;;;;;43.67;18.88;;;1.00;99.90;;;;;;5025992;28;20029;-84
2022/03/06 04:43:41;;;;;;;43.47;19.77;;;1.00;99.90;;;;;;5042423;28;20080;-83
2022/03/06 04:46:07;;;;;;;44.25;19.17;;;1.00;99.90;;;;;;5026149;28;20017;-83
2022/03/06 04:48:33;;;;;;;46.65;20.05;;;1.00;99.90;;;;;;5025941;28;20025;-85
2022/03/06 04:50:59;;;;;;;46.90;20.02;;;1.00;99.90;;;;;;5040305;28;20076;-86
2022/03/06 04:53:25;;;;;;;49.67;19.40;;;1.00;99.90;;;;;;5032850;28;20091;-86
2022/03/06 04:55:51;;;;;;;46.70;19.92;;;1.00;99.90;;;;;;5025703;28;20065;-85
2022/03/06 04:58:17;;;;;;;45.20;18.35;;;1.00;99.90;;;;;;5041605;28;20800;-85
2022/03/06 05:00:43;;;;;;;48.92;19.73;;;1.00;99.90;;;;;;5024862;28;20033;-86
2022/03/06 05:03:09;;;;;;;41.85;18.33;;;1.00;99.90;;;;;;5049365;28;20038;-85
2022/03/06 05:05:35;;;;;;;48.13;19.08;;;1.00;99.90;;;;;;5031099;28;20173;-86
2022/03/06 05:08:00;;;;;;;47.63;18.65;;;1.00;99.90;;;;;;5052253;28;20029;-87
2022/03/06 05:10:26;;;;;;;47.45;20.42;;;1.00;99.90;;;;;;5039832;28;20060;-86
2022/03/06 05:12:52;;;;;;;43.80;19.23;;;1.00;99.90;;;;;;5058909;28;20068;-87
2022/03/06 05:15:18;;;;;;;48.08;19.15;;;0.90;99.90;;;;;;5058015;28;20009;-86
2022/03/06 05:17:44;;;;;;;44.90;19.20;;;0.90;99.90;;;;;;5058402;28;20035;-84
2022/03/06 05:20:11;;;;;;;45.58;19.10;;;0.90;99.90;;;;;;5058752;28;20068;-84
2022/03/06 05:22:38;;;;;;;45.70;18.92;;;1.00;99.90;;;;;;5041280;28;20040;-85
2022/03/06 05:25:05;;;;;;;45.17;19.83;;;0.90;99.90;;;;;;5041537;28;20010;-85
2022/03/06 05:27:31;;;;;;;42.35;18.15;;;0.90;99.90;;;;;;5058577;28;20037;-85
2022/03/06 05:29:57;;;;;;;49.25;19.48;;;0.90;99.90;;;;;;5058430;28;20026;-83
2022/03/06 05:32:23;;;;;;;43.15;19.55;;;0.90;99.90;;;;;;5025085;28;20048;-85
2022/03/06 05:34:49;;;;;;;47.40;19.52;;;0.90;99.90;;;;;;5058371;28;20017;-83
2022/03/06 05:37:15;;;;;;;49.67;18.80;;;0.90;99.90;;;;;;5058300;28;20056;-84
2022/03/06 05:39:41;;;;;;;43.08;17.98;;;0.90;99.90;;;;;;5041008;28;20028;-83
2022/03/06 05:42:07;;;;;;;44.05;18.52;;;0.90;99.90;;;;;;5032446;28;20037;-86
2022/03/06 05:44:33;;;;;;;45.25;19.42;;;0.90;99.90;;;;;;5043769;28;20084;-87
2022/03/06 05:46:59;;;;;;;45.78;19.27;;;1.00;99.90;;;;;;5038886;28;20024;-86
2022/03/06 05:49:25;;;;;;;44.80;18.35;;;1.00;99.90;;;;;;5054586;28;20018;-81
2022/03/06 05:51:51;;;;;;;47.13;18.20;;;1.00;99.90;;;;;;5057845;28;20035;-84
2022/03/06 05:54:16;;;;;;;50.67;20.38;;;1.10;99.90;;;;;;5058700;28;20045;-84
2022/03/06 05:56:42;;;;;;;44.78;19.15;;;1.00;99.90;;;;;;5058591;28;20021;-84
2022/03/06 05:59:08;;;;;;;45.50;19.15;;;1.10;99.90;;;;;;5041332;28;20033;-83
2022/03/06 06:01:34;;;;;;;41.30;18.50;;;1.10;99.90;;;;;;5058017;28;20028;-84
2022/03/06 06:04:01;;;;;;;43.38;20.23;;;1.20;99.90;;;;;;5058223;28;20014;-83
2022/03/06 06:06:28;;;;;;;49.28;18.27;;;1.20;99.90;;;;;;5057944;28;20048;-87
2022/03/06 06:08:54;;;;;;;47.63;19.98;;;1.30;99.90;;;;;;5057743;28;20029;-85
2022/03/06 06:11:20;;;;;;;46.95;19.77;;;1.30;99.90;;;;;;5040196;28;20013;-86
2022/03/06 06:13:47;;;;;;;43.88;19.67;;;1.40;99.90;;;;;;5030396;28;20052;-86
2022/03/06 06:16:14;;;;;;;45.30;18.85;;;1.40;99.90;;;;;;5042528;28;20033;-86
2022/03/06 06:18:40;;;;;;;40.17;17.63;;;1.40;99.90;;;;;;5052326;28;20084;-86
2022/03/06 06:21:06;;;;;;;46.35;18.83;;;1.50;99.90;;;;;;5037321;28;20116;-86
2022/03/06 06:23:33;;;;;;;38.42;17.83;;;1.50;99.90;;;;;;5054593;28;20009;-87
2022/03/06 06:25:59;;;;;;;47.20;19.60;;;1.50;99.90;;;;;;5037865;28;20025;-85
2022/03/06 06:28:24;;;;;;;46.90;18.55;;;1.60;99.90;;;;;;5052643;28;20053;-86
2022/03/06 06:30:51;;;;;;;41.40;18.27;;;1.60;99.90;;;;;;5048123;28;20064;-87
2022/03/06 06:33:16;;;;;;;42.00;19.17;;;1.70;99.90;;;;;;5030103;28;20037;-83
2022/03/06 06:35:42;;;;;;;39.58;18.48;;;1.80;99.90;;;;;;5056746;28;20037;-84
2022/03/06 06:38:08;;;;;;;38.90;16.98;;;1.80;99.90;;;;;;5057188;28;20029;-84
2022/03/06 06:40:34;;;;;;;44.80;18.52;;;1.90;99.90;;;;;;5039845;28;20029;-84
2022/03/06 06:43:02;;;;;;;44.00;18.88;;;1.90;99.90;;;;;;5020914;28;20030;-86
2022/03/06 06:45:27;;;;;;;50.60;19.67;;;2.00;99.90;;;;;;5043817;28;20370;-86
2022/03/06 06:47:54;;;;;;;42.70;18.15;;;2.10;99.90;;;;;;5043515;28;20089;-86
2022/03/06 06:50:20;;;;;;;44.17;19.42;;;2.10;99.90;;;;;;5048384;28;20068;-86
2022/03/06 06:52:45;;;;;;;42.55;19.13;;;2.20;99.90;;;;;;5052674;28;20009;-85
2022/03/06 06:55:11;;;;;;;42.58;18.25;;;2.20;99.90;;;;;;5054373;28;20021;-85
2022/03/06 06:57:37;;;;;;;44.70;19.48;;;2.40;99.90;;;;;;5055029;28;20045;-86
2022/03/06 07:00:05;;;;;;;42.95;19.02;;;2.40;99.90;;;;;;5033615;28;20037;-85
2022/03/06 07:02:31;;;;;;;48.15;19.58;;;2.40;99.90;;;;;;5030773;28;20116;-89
2022/03/06 07:04:56;;;;;;;44.13;19.23;;;2.40;99.90;;;;;;5032555;28;20115;-87
2022/03/06 07:07:24;;;;;;;41.08;18.77;;;2.40;99.90;;;;;;5052812;28;20026;-88
2022/03/06 07:09:49;;;;;;;47.13;20.23;;;2.40;99.90;;;;;;5048517;28;20064;-86
2022/03/06 07:12:15;;;;;;;39.50;18.75;;;2.40;99.90;;;;;;5028688;28;20022;-86
2022/03/06 07:14:41;;;;;;;43.08;19.27;;;2.50;99.90;;;;;;5047568;28;20049;-87
2022/03/06 07:17:07;;;;;;;41.90;19.30;;;2.50;99.90;;;;;;5029380;28;20030;-86
2022/03/06 07:19:33;;;;;;;51.25;20.15;;;2.60;99.90;;;;;;5047524;28;20034;-88
2022/03/06 07:21:59;;;;;;;48.58;21.60;;;2.70;99.90;;;;;;5032725;28;20036;-87
2022/03/06 07:24:26;;;;;;;44.15;20.63;;;2.70;99.90;;;;;;5036067;28;20252;-87
2022/03/06 07:26:52;;;;;;;48.55;21.25;;;2.70;99.90;;;;;;5054490;28;20052;-87
2022/03/06 07:29:18;;;;;;;47.95;20.13;;;2.90;99.90;;;;;;5041158;28;20069;-88
2022/03/06 07:31:44;;;;;;;48.80;20.17;;;3.00;99.90;;;;;;5032304;28;20040;-88
2022/03/06 07:34:09;;;;;;;45.78;20.55;;;3.20;99.90;;;;;;5054002;28;20021;-87
2022/03/06 07:36:35;;;;;;;48.45;20.63;;;3.40;99.90;;;;;;5018612;28;20033;-87
2022/03/06 07:39:01;;;;;;;51.45;21.33;;;3.70;99.50;;;;;;5030465;28;20041;-86
2022/03/06 07:41:27;;;;;;;45.97;20.30;;;3.90;98.90;;;;;;5046429;28;20091;-89
2022/03/06 07:43:53;;;;;;;44.67;19.65;;;4.10;98.40;;;;;;5049120;28;20025;-87
2022/03/06 07:46:18;;;;;;;46.38;20.10;;;4.10;98.00;;;;;;5053221;28;20120;-87
2022/03/06 07:48:44;;;;;;;44.60;20.73;;;4.10;97.80;;;;;;5050160;28;20041;-87
2022/03/06 07:51:10;;;;;;;45.95;19.92;;;4.30;97.80;;;;;;5030164;28;20083;-86
2022/03/06 07:53:36;;;;;;;45.95;20.00;;;4.30;97.60;;;;;;5048907;28;20095;-88
2022/03/06 07:56:02;;;;;;;41.92;19.23;;;4.50;97.30;;;;;;5049802;28;20032;-87
2022/03/06 07:58:28;;;;;;;42.40;19.00;;;4.70;96.90;;;;;;5050096;28;20061;-88
2022/03/06 08:00:53;;;;;;;43.47;19.38;;;4.70;96.00;;;;;;5034848;28;20040;-88
2022/03/06 08:03:19;;;;;;;48.03;21.30;;;4.70;96.10;;;;;;5034909;28;20041;-87
2022/03/06 08:05:45;;;;;;;46.45;21.35;;;4.70;96.50;;;;;;5054195;28;20034;-88
2022/03/06 08:08:11;;;;;;;46.65;20.73;;;4.70;96.50;;;;;;5058459;28;20030;-86
2022/03/06 08:10:37;;;;;;;42.42;19.73;;;4.80;96.40;;;;;;5058627;28;20501;-86
2022/03/06 08:13:03;;;;;;;45.22;20.83;;;4.80;96.60;;;;;;5042712;28;20061;-86
2022/03/06 08:15:28;;;;;;;42.33;19.88;;;5.00;96.30;;;;;;5041039;28;20085;-86
2022/03/06 08:17:54;;;;;;;52.03;20.88;;;5.20;96.10;;;;;;5042806;28;20018;-85
2022/03/06 08:20:20;;;;;;;48.35;21.63;;;5.30;95.80;;;;;;5043360;28;20052;-83
2022/03/06 08:22:46;;;;;;;53.78;20.40;;;5.40;95.50;;;;;;5042413;28;20025;-86
2022/03/06 08:25:12;;;;;;;49.42;21.67;;;5.40;95.20;;;;;;5026307;28;20017;-86
2022/03/06 08:27:37;;;;;;;47.63;21.20;;;5.50;95.20;;;;;;5042882;28;20025;-86
2022/03/06 08:30:05;;;;;;;52.58;20.63;;;5.60;95.20;;;;;;5059578;28;20069;-86
2022/03/06 08:32:31;;;;;;;44.75;20.02;;;5.70;94.40;;;;;;5041717;28;20029;-87
2022/03/06 08:34:58;;;;;;;46.78;20.45;;;5.80;94.00;;;;;;5059903;28;20029;-84
2022/03/06 08:37:24;;;;;;;43.33;19.55;;;5.60;93.60;;;;;;5059577;28;20025;-85
2022/03/06 08:39:50;;;;;;;44.17;19.23;;;5.70;93.80;;;;;;5059385;28;20040;-85
2022/03/06 08:42:16;;;;;;;36.85;18.60;;;5.60;93.90;;;;;;5058278;28;20025;-87
2022/03/06 08:44:42;;;;;;;44.25;20.15;;;5.60;93.50;;;;;;5055936;28;20138;-86
2022/03/06 08:47:09;;;;;;;40.85;19.40;;;5.60;93.60;;;;;;5054261;28;20029;-85
2022/03/06 08:49:35;;;;;;;45.20;19.33;;;5.50;93.70;;;;;;5052063;28;20078;-88
2022/03/06 08:52:01;;;;;;;42.78;21.05;;;5.70;93.80;;;;;;5051791;28;20017;-86
2022/03/06 08:54:27;;;;;;;43.45;20.00;;;5.90;93.70;;;;;;5036845;28;20018;-86
2022/03/06 08:56:52;;;;;;;40.53;18.05;;;6.00;93.80;;;;;;5034912;28;20037;-86
2022/03/06 08:59:19;;;;;;;34.63;16.10;;;6.10;92.80;;;;;;5053987;28;20021;-87
2022/03/06 09:01:46;;;;;;;33.22;16.30;;;6.10;90.90;;;;;;5054433;28;20038;-87
2022/03/06 09:04:13;;;;;;;33.30;16.40;;;6.00;90.40;;;;;;5039535;28;20014;-87
2022/03/06 09:06:40;;;;;;;32.35;16.85;;;5.90;90.10;;;;;;5058455;28;20049;-86
2022/03/06 09:09:05;;;;;;;32.40;15.98;;;5.80;90.00;;;;;;5058744;28;20057;-86
2022/03/06 09:11:31;;;;;;;33.75;15.07;;;6.00;89.30;;;;;;5058548;28;20085;-86
2022/03/06 09:13:59;;;;;;;29.90;14.63;;;6.30;87.70;;;;;;5041412;28;20040;-87
2022/03/06 09:16:25;;;;;;;31.02;14.75;;;6.50;86.40;;;;;;5054365;28;20100;-88
2022/03/06 09:18:51;;;;;;;30.55;13.95;;;6.80;84.50;;;;;;5036629;28;20010;-85
2022/03/06 09:21:17;;;;;;;26.77;14.23;;;6.80;83.60;;;;;;5035783;28;20040;-86
2022/03/06 09:23:43;;;;;;;28.38;13.00;;;7.10;83.00;;;;;;5053386;28;20034;-86
2022/03/06 09:26:09;;;;;;;21.63;11.55;;;7.60;80.00;;;;;;5037313;28;20024;-86
2022/03/06 09:28:35;;;;;;;26.48;13.40;;;7.80;78.60;;;;;;5038558;28;20056;-85
2022/03/06 09:31:01;;;;;;;18.73;10.38;;;8.60;76.70;;;;;;5056931;28;20077;-86
2022/03/06 09:33:27;;;;;;;21.80;11.85;;;9.50;73.70;;;;;;5023584;28;20028;-85
2022/03/06 09:35:53;;;;;;;24.40;11.77;;;10.50;71.40;;;;;;5039847;28;20085;-85
2022/03/06 09:38:19;;;;;;;22.30;11.50;;;11.80;67.60;;;;;;5055363;28;20006;-86
2022/03/06 09:40:45;;;;;;;21.58;12.30;;;12.90;64.70;;;;;;5057553;28;20035;-87
2022/03/06 09:43:17;;;;;;;24.40;13.10;;;13.20;61.80;;;;;;5054390;28;20022;-87
2022/03/06 09:45:44;;;;;;;26.00;14.02;;;13.70;60.50;;;;;;5037673;28;20025;-88
2022/03/06 09:48:12;;;;;;;24.45;13.25;;;14.00;60.30;;;;;;5055634;28;20014;-88
2022/03/06 09:50:38;;;;;;;21.45;12.38;;;15.10;58.40;;;;;;5055900;28;20025;-85
2022/03/06 09:53:04;;;;;;;21.92;13.18;;;16.00;55.80;;;;;;5056632;28;20088;-84
2022/03/06 09:55:30;;;;;;;24.98;14.77;;;16.40;54.60;;;;;;5056933;28;20025;-86
2022/03/06 09:57:59;;;;;;;27.42;14.68;;;16.10;53.60;;;;;;5038544;28;20071;-86
2022/03/06 10:00:25;;;;;;;23.83;13.27;;;15.10;54.20;;;;;;5044808;23;20025;-91
2022/03/06 10:02:51;;;;;;;24.73;13.75;;;13.40;55.60;;;;;;5039916;28;20022;-89
2022/03/06 10:05:31;;;;;;;26.58;13.82;;;12.00;57.50;;;;;;5036564;28;20132;-89
2022/03/06 10:08:19;;;;;;;27.10;14.52;;;10.00;59.60;;;;;;5049337;28;20089;-88
2022/03/06 10:10:46;;;;;;;27.65;14.70;;;9.00;62.20;;;;;;5040407;28;20032;-89
2022/03/06 10:13:32;;;;;;;27.42;14.05;;;9.50;62.70;;;;;;5022900;28;20060;-87
2022/03/06 10:16:15;;;;;;;28.77;14.77;;;11.80;59.80;;;;;;5034697;28;20025;-88
2022/03/06 10:18:51;;;;;;;29.73;15.20;;;14.00;57.00;;;;;;5033027;28;20032;-87
2022/03/06 10:21:19;;;;;;;25.63;14.23;;;15.40;54.90;;;;;;5033580;28;20029;-88
2022/03/06 10:23:47;;;;;;;25.60;14.90;;;16.50;52.90;;;;;;5015503;28;20041;-89
2022/03/06 10:26:19;;;;;;;25.30;14.20;;;16.80;52.30;;;;;;5033049;28;20036;-88
2022/03/06 10:28:57;;;;;;;23.67;14.30;;;15.90;52.10;;;;;;5040540;28;20025;-90
2022/03/06 10:31:25;;;;;;;25.98;15.02;;;14.30;53.40;;;;;;5040011;28;20018;-89
2022/03/06 10:34:14;;;;;;;22.75;13.65;;;12.80;54.90;;;;;;5040001;28;20033;-86
2022/03/06 10:36:45;;;;;;;23.77;14.43;;;11.90;56.40;;;;;;5040503;28;20046;-90
2022/03/06 10:39:19;;;;;;;23.70;13.55;;;12.50;56.60;;;;;;5044915;28;20040;-91
2022/03/06 10:41:55;;;;;;;25.08;14.70;;;14.10;54.40;;;;;;5061525;28;20024;-88
2022/03/06 10:44:41;;;;;;;23.80;13.38;;;13.70;54.00;;;;;;5061991;28;20078;-89
2022/03/06 10:47:07;;;;;;;26.38;14.50;;;12.80;55.30;;;;;;5044540;28;20025;-90
2022/03/06 10:49:34;;;;;;;25.83;14.43;;;12.00;56.40;;;;;;5044900;28;20021;-89
2022/03/06 10:52:44;;;;;;;27.95;15.30;;;11.30;56.90;;;;;;5028545;28;20029;-88
2022/03/06 10:55:10;;;;;;;26.90;15.48;;;10.50;57.70;;;;;;5017374;28;20101;-88
2022/03/06 10:57:36;;;;;;;31.48;14.88;;;9.40;59.50;;;;;;5044760;28;20145;-90
2022/03/06 11:00:04;;;;;;;29.77;16.00;;;9.00;60.70;;;;;;5044478;28;20041;-91
2022/03/06 11:02:31;;;;;;;32.42;15.68;;;8.70;61.70;;;;;;5061309;28;20045;-90
2022/03/06 11:05:00;;;;;;;28.45;14.48;;;8.10;62.90;;;;;;5043969;28;20024;-91
2022/03/06 11:07:29;;;;;;;27.25;15.05;;;7.90;63.30;;;;;;5043377;28;20089;-86
2022/03/06 11:09:57;;;;;;;26.88;14.40;;;7.70;64.00;;;;;;5025852;28;20053;-89
2022/03/06 11:12:24;;;;;;;29.52;14.57;;;7.60;64.30;;;;;;5040788;28;20069;-86
2022/03/06 11:14:50;;;;;;;27.17;14.30;;;7.70;64.20;;;;;;5004495;28;20032;-88
2022/03/06 11:17:17;;;;;;;28.10;14.20;;;7.80;63.50;;;;;;5058575;28;20010;-88
2022/03/06 11:19:43;;;;;;;28.90;14.45;;;8.60;63.10;;;;;;5061692;28;20036;-90
2022/03/06 11:22:32;;;;;;;25.00;13.48;;;9.90;60.10;;;;;;5040778;28;20026;-87
2022/03/06 11:25:07;;;;;;;27.15;13.75;;;11.10;58.70;;;;;;5038668;28;20022;-88
2022/03/06 11:28:05;;;;;;;29.38;14.43;;;12.10;57.00;;;;;;5026878;28;20052;-90
2022/03/06 11:30:31;;;;;;;29.77;14.93;;;11.80;56.90;;;;;;5021023;28;20029;-88
2022/03/06 11:33:07;;;;;;;26.50;14.02;;;10.90;58.00;;;;;;5035026;28;20049;-87
2022/03/06 11:35:44;;;;;;;25.52;13.93;;;10.30;58.50;;;;;;5053501;28;20026;-87
2022/03/06 11:38:12;;;;;;;25.92;14.00;;;9.50;59.20;;;;;;5052599;28;20068;-88
2022/03/06 11:40:48;;;;;;;24.95;14.27;;;8.80;60.80;;;;;;5019022;28;20022;-87
2022/03/06 11:43:31;;;;;;;28.48;14.77;;;8.60;61.40;;;;;;5051263;28;20034;-87
2022/03/06 11:46:03;;;;;;;29.02;14.00;;;8.40;61.80;;;;;;5041503;28;20055;-87
2022/03/06 11:48:32;;;;;;;28.05;14.73;;;8.20;62.30;;;;;;5043215;28;20033;-87
2022/03/06 11:51:22;;;;;;;32.78;14.95;;;8.00;62.80;;;;;;5026493;28;20028;-86
2022/03/06 11:54:09;;;;;;;30.27;15.02;;;7.70;63.60;;;;;;5057100;28;20053;-86
2022/03/06 11:56:35;;;;;;;31.45;15.77;;;7.40;64.70;;;;;;5056862;28;20020;-87
2022/03/06 11:59:25;;;;;;;30.27;15.30;;;7.20;65.30;;;;;;5021457;28;20093;-88
2022/03/06 12:01:58;;;;;;;32.97;15.10;;;7.00;65.40;;;;;;5032638;28;20034;-87
2022/03/06 12:04:29;;;;;;;28.75;14.55;;;7.00;65.10;;;;;;5016529;28;20030;-88
2022/03/06 12:07:00;;;;;;;30.20;14.85;;;7.00;65.30;;;;;;5034232;28;20048;-87
2022/03/06 12:09:29;;;;;;;28.70;15.05;;;6.90;65.70;;;;;;5034592;28;20048;-87
2022/03/06 12:11:58;;;;;;;27.27;14.60;;;6.90;65.50;;;;;;5030368;28;20052;-87
2022/03/06 12:14:54;;;;;;;28.90;14.60;;;6.90;64.70;;;;;;5031555;28;20032;-86
2022/03/06 12:17:22;;;;;;;31.00;14.82;;;6.80;64.90;;;;;;5034549;28;20068;-87
2022/03/06 12:19:51;;;;;;;26.27;14.30;;;6.80;65.00;;;;;;5054693;28;20009;-88
2022/03/06 12:22:33;;;;;;;26.92;14.32;;;6.70;65.20;;;;;;5058502;28;20049;-87
2022/03/06 12:25:11;;;;;;;26.13;13.50;;;7.00;65.00;;;;;;5058723;28;20013;-89
2022/03/06 12:27:42;;;;;;;25.40;13.13;;;9.10;62.20;;;;;;5040483;28;20041;-87
2022/03/06 12:30:16;;;;;;;24.20;13.05;;;10.60;59.80;;;;;;5058254;28;20040;-87
2022/03/06 12:32:42;;;;;;;26.98;13.52;;;11.90;56.70;;;;;;5021882;28;20037;-87
2022/03/06 12:38:01;;;;;;;28.65;14.15;;;12.80;55.40;;;;;;5110049;23;20065;-89
2022/03/06 12:40:29;;;;;;;24.50;14.15;;;12.40;54.90;;;;;;5403951;22;20020;-91
2022/03/06 12:43:08;;;;;;;23.58;13.50;;;11.50;55.70;;;;;;5035616;28;20045;-87